Terminal Aerodrome Forecast
Issued by NWS

Home | Current Version | Previous Version | Text Only | Print | Product List | Glossary On
Versions: 1 2 3 4 5 6 7 8 9 10 11 12 13 14 15 16 17 18 19 20
000
FTUS45 KRIW 231100
TAFCOD
TAF
KCOD 231130Z 2312/2412 19012G18KT P6SM SCT250
     FM231400 18007KT P6SM SCT120 BKN250 WS020/26030KT
     FM232200 25014G22KT P6SM SCT120 BKN250
      AMD LTD TO CLD VIS AND WIND=

USA.gov is the U.S. government's official web portal to all federal, state and local government web resources and services.